Time;durP1;ratioP1;P1;durP2;ratioP2;P2;SDS_P1;SDS_P2;PMS_P1;PMS_P2;Temp;Humidity;BMP_temperature;BMP_pressure;BME280_temperature;BME280_humidity;BME280_pressure;Samples;Min_cycle;Max_cycle;Signal;HPM_P1;HPM_P2
2022/12/31 00:02:19;;;;;;;10.73;2.30;;;;;;;;;;4992275;28;20351;-94
2022/12/31 00:04:45;;;;;;;12.63;2.63;;;;;;;;;;4979470;28;20037;-94
2022/12/31 00:07:11;;;;;;;5.47;1.63;;;;;;;;;;4998734;28;20382;-94
2022/12/31 00:09:38;;;;;;;8.80;1.95;;;;;;;;;;4999024;28;20117;-94
2022/12/31 00:12:04;;;;;;;9.10;2.28;;;;;;;;;;4994433;28;20026;-93
2022/12/31 00:17:39;;;;;;;14.68;2.17;;;;;;;;;;4993753;28;20041;-94
2022/12/31 00:20:08;;;;;;;26.55;2.70;;;;;;;;;;4974432;28;20042;-94
2022/12/31 00:22:34;;;;;;;15.25;3.72;;;;;;;;;;4986989;28;20371;-92
2022/12/31 00:25:00;;;;;;;12.85;2.97;;;;;;;;;;5007615;28;20728;-93
2022/12/31 00:27:29;;;;;;;10.85;2.33;;;;;;;;;;4975579;28;20473;-93
2022/12/31 00:29:55;;;;;;;7.65;2.20;;;;;;;;;;4985383;28;20018;-93
2022/12/31 00:32:21;;;;;;;9.60;2.63;;;;;;;;;;4975003;28;20038;-94
2022/12/31 00:34:47;;;;;;;13.98;2.95;;;;;;;;;;4978613;28;20092;-94
2022/12/31 00:37:18;;;;;;;12.35;2.47;;;;;;;;;;4986520;28;20478;-94
2022/12/31 00:39:46;;;;;;;10.70;2.30;;;;;;;;;;4984572;28;20054;-95
2022/12/31 00:42:15;;;;;;;12.23;2.28;;;;;;;;;;4981382;28;20034;-93
2022/12/31 00:44:41;;;;;;;12.55;2.72;;;;;;;;;;4993399;28;20036;-94
2022/12/31 00:47:07;;;;;;;13.10;2.40;;;;;;;;;;4976036;28;20041;-94
2022/12/31 00:49:34;;;;;;;15.57;2.35;;;;;;;;;;4992023;28;20022;-92
2022/12/31 00:52:00;;;;;;;16.05;3.35;;;;;;;;;;4984294;28;20482;-94
2022/12/31 00:54:26;;;;;;;14.15;3.40;;;;;;;;;;4995904;28;20053;-96
2022/12/31 00:56:56;;;;;;;14.75;3.05;;;;;;;;;;4994508;28;20029;-93
2022/12/31 00:59:22;;;;;;;7.97;1.58;;;;;;;;;;5003449;28;20048;-94
2022/12/31 01:01:48;;;;;;;23.55;3.45;;;;;;;;;;4987556;28;20127;-93
2022/12/31 01:04:16;;;;;;;19.00;3.25;;;;;;;;;;4974871;28;20363;-94
2022/12/31 01:06:48;;;;;;;19.33;3.50;;;;;;;;;;4991192;28;20061;-93
2022/12/31 01:09:17;;;;;;;18.15;3.10;;;;;;;;;;4972028;28;20088;-95
2022/12/31 01:11:43;;;;;;;11.57;3.33;;;;;;;;;;4975278;28;20045;-95
2022/12/31 01:14:11;;;;;;;20.30;3.25;;;;;;;;;;5003103;28;20164;-94
2022/12/31 01:16:38;;;;;;;9.68;2.65;;;;;;;;;;5005013;28;20121;-94
2022/12/31 01:19:15;;;;;;;19.20;3.70;;;;;;;;;;4999428;28;20367;-93
2022/12/31 01:21:46;;;;;;;11.48;3.22;;;;;;;;;;5002488;28;20038;-96
2022/12/31 01:24:21;;;;;;;13.82;3.20;;;;;;;;;;5008251;28;20570;-95
2022/12/31 01:26:50;;;;;;;14.25;3.22;;;;;;;;;;5003335;28;20030;-96
2022/12/31 01:29:16;;;;;;;16.15;3.45;;;;;;;;;;4997912;28;20138;-93
2022/12/31 01:31:42;;;;;;;24.65;4.05;;;;;;;;;;4995521;28;20159;-95
2022/12/31 01:34:08;;;;;;;8.65;2.67;;;;;;;;;;4981661;28;20501;-95
2022/12/31 01:36:37;;;;;;;11.68;2.33;;;;;;;;;;4987776;28;20030;-94
2022/12/31 01:39:32;;;;;;;13.63;2.72;;;;;;;;;;4992265;28;20474;-95
2022/12/31 01:42:01;;;;;;;24.60;3.97;;;;;;;;;;4988611;28;20109;-95
2022/12/31 01:44:42;;;;;;;10.43;3.58;;;;;;;;;;4973396;28;20045;-95
2022/12/31 01:47:44;;;;;;;20.67;3.47;;;;;;;;;;4991959;28;20126;-94
2022/12/31 01:50:57;;;;;;;15.07;2.70;;;;;;;;;;4944529;28;20047;-94
2022/12/31 01:53:23;;;;;;;14.43;3.88;;;;;;;;;;4883794;29;20046;-95
2022/12/31 01:55:56;;;;;;;11.80;2.80;;;;;;;;;;4975332;28;20046;-94
2022/12/31 01:58:28;;;;;;;15.65;3.85;;;;;;;;;;4983073;28;20033;-94
2022/12/31 02:00:59;;;;;;;9.05;2.40;;;;;;;;;;5001623;28;20088;-93
2022/12/31 02:03:30;;;;;;;16.60;3.58;;;;;;;;;;5002241;28;20060;-94
2022/12/31 02:06:16;;;;;;;9.95;2.20;;;;;;;;;;4984826;28;20401;-94
2022/12/31 02:08:57;;;;;;;14.27;2.88;;;;;;;;;;4988449;28;20528;-93
2022/12/31 02:11:34;;;;;;;7.00;2.50;;;;;;;;;;5005233;28;20041;-94
2022/12/31 02:14:03;;;;;;;12.82;3.10;;;;;;;;;;5000112;28;20092;-94
2022/12/31 02:16:32;;;;;;;14.85;3.20;;;;;;;;;;4994937;28;20034;-95
2022/12/31 02:19:19;;;;;;;4.25;1.58;;;;;;;;;;4986816;28;20036;-95
2022/12/31 02:22:15;;;;;;;13.13;3.40;;;;;;;;;;5003901;28;20025;-94
2022/12/31 02:25:09;;;;;;;10.40;2.30;;;;;;;;;;4940027;28;20059;-94
2022/12/31 02:27:56;;;;;;;9.75;3.22;;;;;;;;;;4996822;28;20042;-94
2022/12/31 02:30:24;;;;;;;12.93;3.40;;;;;;;;;;4998883;28;20041;-94
2022/12/31 02:33:08;;;;;;;9.68;1.83;;;;;;;;;;5000303;28;20080;-95
2022/12/31 02:35:49;;;;;;;9.35;3.38;;;;;;;;;;5003282;28;20045;-93
2022/12/31 02:38:18;;;;;;;9.77;2.60;;;;;;;;;;5004580;28;20080;-94
2022/12/31 02:40:52;;;;;;;3.25;1.42;;;;;;;;;;4998272;28;20144;-94
2022/12/31 02:43:19;;;;;;;18.80;3.58;;;;;;;;;;4994387;28;20076;-95
2022/12/31 02:45:47;;;;;;;11.05;2.95;;;;;;;;;;4978235;28;20042;-93
2022/12/31 02:48:40;;;;;;;8.32;2.33;;;;;;;;;;5014724;28;20026;-94
2022/12/31 02:51:14;;;;;;;10.70;2.67;;;;;;;;;;4983755;28;20132;-93
2022/12/31 02:53:56;;;;;;;6.40;2.17;;;;;;;;;;4990238;28;20406;-93
2022/12/31 02:56:27;;;;;;;7.15;2.75;;;;;;;;;;4996694;28;20061;-94
2022/12/31 03:04:33;;;;;;;10.15;2.20;;;;;;;;;;5005295;28;20053;-94
2022/12/31 03:07:07;;;;;;;9.75;2.78;;;;;;;;;;5016712;28;20128;-93
2022/12/31 03:09:34;;;;;;;4.97;2.38;;;;;;;;;;5003148;28;20070;-93
2022/12/31 03:14:45;;;;;;;9.95;2.30;;;;;;;;;;4987821;28;20076;-93
2022/12/31 03:17:11;;;;;;;7.43;1.83;;;;;;;;;;4976387;28;20045;-94
2022/12/31 03:22:28;;;;;;;6.78;2.03;;;;;;;;;;5004786;28;20045;-93
2022/12/31 03:27:40;;;;;;;7.47;1.42;;;;;;;;;;4994574;28;20057;-94
2022/12/31 03:30:06;;;;;;;3.13;2.10;;;;;;;;;;4977127;28;20395;-95
2022/12/31 03:32:32;;;;;;;9.35;2.20;;;;;;;;;;4975948;28;20361;-93
2022/12/31 03:34:58;;;;;;;7.50;1.73;;;;;;;;;;4989751;28;20022;-94
2022/12/31 03:37:27;;;;;;;5.47;1.35;;;;;;;;;;5003339;28;20030;-93
2022/12/31 03:39:53;;;;;;;11.00;1.52;;;;;;;;;;5004478;28;20723;-92
2022/12/31 03:42:19;;;;;;;6.32;1.63;;;;;;;;;;4982459;28;20038;-92
2022/12/31 03:44:45;;;;;;;9.18;1.80;;;;;;;;;;5002013;28;20038;-94
2022/12/31 03:47:30;;;;;;;7.22;1.00;;;;;;;;;;4979868;28;20048;-93
2022/12/31 03:49:56;;;;;;;7.22;1.00;;;;;;;;;;5001478;28;20034;-93
2022/12/31 03:52:22;;;;;;;5.25;1.40;;;;;;;;;;4976304;28;20112;-94
2022/12/31 03:54:51;;;;;;;9.00;1.73;;;;;;;;;;4995921;28;20481;-93
2022/12/31 03:57:31;;;;;;;6.38;1.00;;;;;;;;;;4976287;28;20037;-94
2022/12/31 03:59:57;;;;;;;7.53;1.17;;;;;;;;;;5008563;28;20088;-95
2022/12/31 04:02:23;;;;;;;5.13;1.00;;;;;;;;;;4996488;28;20026;-94
2022/12/31 04:04:49;;;;;;;4.40;1.42;;;;;;;;;;4991116;28;20230;-95
2022/12/31 04:07:18;;;;;;;5.85;1.30;;;;;;;;;;5003081;28;20069;-94
2022/12/31 04:09:44;;;;;;;3.05;0.90;;;;;;;;;;4988196;28;20054;-93
2022/12/31 04:12:14;;;;;;;5.18;1.27;;;;;;;;;;4970645;28;20038;-94
2022/12/31 04:14:51;;;;;;;2.13;0.70;;;;;;;;;;4990527;28;20053;-95
2022/12/31 04:17:17;;;;;;;4.55;0.85;;;;;;;;;;4993487;28;20023;-93
2022/12/31 04:19:43;;;;;;;8.20;1.17;;;;;;;;;;5003378;28;20022;-94
2022/12/31 04:22:09;;;;;;;6.18;1.00;;;;;;;;;;4991896;28;20384;-95
2022/12/31 04:24:42;;;;;;;5.32;0.85;;;;;;;;;;4972843;28;20468;-95
2022/12/31 04:27:09;;;;;;;5.90;0.95;;;;;;;;;;4990266;28;20461;-94
2022/12/31 04:29:35;;;;;;;6.13;1.23;;;;;;;;;;4978969;28;20054;-94
2022/12/31 04:32:01;;;;;;;5.18;1.25;;;;;;;;;;4993486;28;20111;-94
2022/12/31 04:34:27;;;;;;;3.05;0.82;;;;;;;;;;5005237;28;20038;-94
2022/12/31 04:36:53;;;;;;;8.02;1.40;;;;;;;;;;4981695;28;20030;-94
2022/12/31 04:39:25;;;;;;;5.20;1.40;;;;;;;;;;4969968;28;20039;-95
2022/12/31 04:41:54;;;;;;;3.95;0.82;;;;;;;;;;4986502;28;20049;-93
2022/12/31 04:44:25;;;;;;;8.63;1.70;;;;;;;;;;5002168;28;20041;-94
2022/12/31 04:46:51;;;;;;;7.07;1.88;;;;;;;;;;4979970;28;20045;-94
2022/12/31 04:49:18;;;;;;;7.03;1.70;;;;;;;;;;5001063;28;20030;-94
2022/12/31 04:51:44;;;;;;;2.58;1.60;;;;;;;;;;4979574;28;20042;-94
2022/12/31 04:54:10;;;;;;;6.57;1.67;;;;;;;;;;4991100;28;20164;-94
2022/12/31 04:56:36;;;;;;;4.60;1.08;;;;;;;;;;4995969;28;20037;-94
2022/12/31 04:59:03;;;;;;;3.15;1.50;;;;;;;;;;4982282;28;20038;-93
2022/12/31 05:01:29;;;;;;;3.10;1.05;;;;;;;;;;4997686;28;20036;-94
2022/12/31 05:03:55;;;;;;;8.02;1.10;;;;;;;;;;4998877;28;20083;-93
2022/12/31 05:06:22;;;;;;;2.63;1.33;;;;;;;;;;4972784;28;20088;-95
2022/12/31 05:08:48;;;;;;;4.82;1.40;;;;;;;;;;4999322;28;20168;-95
2022/12/31 05:11:15;;;;;;;7.03;1.17;;;;;;;;;;4979279;28;20029;-94
2022/12/31 05:13:42;;;;;;;6.10;1.15;;;;;;;;;;5001525;28;20034;-94
2022/12/31 05:16:08;;;;;;;3.90;1.13;;;;;;;;;;4990843;28;20153;-92
2022/12/31 05:18:35;;;;;;;8.00;1.35;;;;;;;;;;4991833;28;20117;-94
2022/12/31 05:21:07;;;;;;;4.40;1.35;;;;;;;;;;4997578;28;20059;-94
2022/12/31 05:23:42;;;;;;;5.53;1.48;;;;;;;;;;4968552;28;20041;-94
2022/12/31 05:26:15;;;;;;;8.00;2.00;;;;;;;;;;4974523;28;20046;-94
2022/12/31 05:28:41;;;;;;;6.18;1.40;;;;;;;;;;5003742;28;20064;-94
2022/12/31 05:31:07;;;;;;;3.65;1.45;;;;;;;;;;4985801;28;20091;-94
2022/12/31 05:33:33;;;;;;;5.68;1.80;;;;;;;;;;4970978;28;20085;-93
2022/12/31 05:35:59;;;;;;;9.18;2.65;;;;;;;;;;4971117;28;20053;-94
2022/12/31 05:38:25;;;;;;;3.38;1.20;;;;;;;;;;4990623;28;20026;-94
2022/12/31 05:41:02;;;;;;;5.07;1.40;;;;;;;;;;5009120;28;20034;-94
2022/12/31 05:43:28;;;;;;;6.00;1.27;;;;;;;;;;4972962;28;20026;-95
2022/12/31 05:45:54;;;;;;;10.32;1.52;;;;;;;;;;4977016;28;20049;-95
2022/12/31 05:48:20;;;;;;;6.78;1.67;;;;;;;;;;4989264;28;20058;-94
2022/12/31 05:50:46;;;;;;;8.82;1.70;;;;;;;;;;4971691;28;20049;-94
2022/12/31 05:53:15;;;;;;;3.15;1.15;;;;;;;;;;4978824;28;20068;-95
2022/12/31 05:55:41;;;;;;;9.68;1.35;;;;;;;;;;4975985;28;20030;-93
2022/12/31 05:58:07;;;;;;;4.35;1.23;;;;;;;;;;4973126;28;20037;-92
2022/12/31 06:00:36;;;;;;;3.63;1.17;;;;;;;;;;4976643;28;20052;-94
2022/12/31 06:03:05;;;;;;;9.70;1.33;;;;;;;;;;4971252;28;20038;-95
2022/12/31 06:05:32;;;;;;;1.95;1.05;;;;;;;;;;4995370;28;20041;-94
2022/12/31 06:07:58;;;;;;;7.88;1.67;;;;;;;;;;4970556;28;20034;-95
2022/12/31 06:10:24;;;;;;;4.40;1.20;;;;;;;;;;4973356;28;20484;-94
2022/12/31 06:12:50;;;;;;;10.10;2.33;;;;;;;;;;4999360;28;20356;-94
2022/12/31 06:18:45;;;;;;;4.20;1.38;;;;;;;;;;5005116;28;20095;-94
2022/12/31 06:21:41;;;;;;;7.03;1.35;;;;;;;;;;4973214;28;20568;-94
2022/12/31 06:24:12;;;;;;;2.65;1.00;;;;;;;;;;4999775;28;20080;-92
2022/12/31 06:26:45;;;;;;;5.78;1.33;;;;;;;;;;4970421;28;20069;-93
2022/12/31 06:29:14;;;;;;;6.40;1.35;;;;;;;;;;4977960;28;20042;-94
2022/12/31 06:31:40;;;;;;;4.32;1.08;;;;;;;;;;4990191;28;20136;-95
2022/12/31 06:34:20;;;;;;;1.33;0.68;;;;;;;;;;4971040;28;20658;-94
2022/12/31 06:42:48;;;;;;;4.10;0.65;;;;;;;;;;4927273;29;20126;-93
2022/12/31 06:45:14;;;;;;;3.10;0.50;;;;;;;;;;4981691;28;20054;-93
2022/12/31 06:47:40;;;;;;;3.58;0.70;;;;;;;;;;4990975;28;20042;-93
2022/12/31 06:50:07;;;;;;;4.95;0.68;;;;;;;;;;4989286;28;20038;-93
2022/12/31 06:52:33;;;;;;;4.60;0.90;;;;;;;;;;4993550;28;20625;-94
2022/12/31 06:54:59;;;;;;;5.53;1.05;;;;;;;;;;4998037;28;20153;-94
2022/12/31 06:57:25;;;;;;;4.45;0.77;;;;;;;;;;4988445;28;21086;-93
2022/12/31 06:59:52;;;;;;;3.15;0.50;;;;;;;;;;4988715;28;20444;-94
2022/12/31 07:02:21;;;;;;;3.45;0.93;;;;;;;;;;5001793;28;20520;-94
2022/12/31 07:05:01;;;;;;;3.45;0.77;;;;;;;;;;4986957;28;20566;-93
2022/12/31 07:07:33;;;;;;;4.35;0.93;;;;;;;;;;4983354;28;20427;-92
2022/12/31 07:09:59;;;;;;;2.90;1.27;;;;;;;;;;4999239;28;20030;-92
2022/12/31 07:12:50;;;;;;;8.75;2.15;;;;;;;;;;4993918;28;20193;-93
2022/12/31 07:15:26;;;;;;;6.90;1.17;;;;;;;;;;5000313;28;20518;-91
2022/12/31 07:17:58;;;;;;;4.93;1.30;;;;;;;;;;5006018;28;20041;-92
2022/12/31 07:20:24;;;;;;;5.93;1.80;;;;;;;;;;5004835;28;20038;-93
2022/12/31 07:22:50;;;;;;;3.30;1.90;;;;;;;;;;4974118;28;20071;-92
2022/12/31 07:25:17;;;;;;;4.85;2.33;;;;;;;;;;4996487;28;20235;-92
2022/12/31 07:27:54;;;;;;;4.32;2.08;;;;;;;;;;4986902;28;20049;-93
2022/12/31 07:30:22;;;;;;;6.70;2.45;;;;;;;;;;4993023;28;20126;-93
2022/12/31 07:33:03;;;;;;;6.30;2.45;;;;;;;;;;4987702;28;20474;-92
2022/12/31 07:35:40;;;;;;;2.45;1.83;;;;;;;;;;4983417;28;20053;-93
2022/12/31 07:38:29;;;;;;;9.18;2.50;;;;;;;;;;4989186;28;20100;-93
2022/12/31 07:41:09;;;;;;;2.53;1.83;;;;;;;;;;4992204;28;20103;-93
2022/12/31 07:43:38;;;;;;;2.88;1.08;;;;;;;;;;4989437;28;20478;-93
2022/12/31 07:46:07;;;;;;;2.20;1.33;;;;;;;;;;4997349;28;20029;-93
2022/12/31 07:48:33;;;;;;;3.22;1.85;;;;;;;;;;4997740;28;20041;-93
2022/12/31 07:51:04;;;;;;;9.15;2.00;;;;;;;;;;4974637;28;20038;-95
2022/12/31 07:53:30;;;;;;;2.72;1.70;;;;;;;;;;4990718;28;20022;-94
2022/12/31 07:55:58;;;;;;;6.90;1.60;;;;;;;;;;5003644;28;20113;-94
2022/12/31 07:58:44;;;;;;;3.95;1.90;;;;;;;;;;5003282;28;20026;-94
2022/12/31 08:01:12;;;;;;;1.25;1.10;;;;;;;;;;4969184;28;20054;-94
2022/12/31 08:03:43;;;;;;;5.03;1.33;;;;;;;;;;4987662;28;20034;-94
2022/12/31 08:06:25;;;;;;;7.28;1.70;;;;;;;;;;4998038;28;20072;-92
2022/12/31 08:08:52;;;;;;;1.33;1.10;;;;;;;;;;4993468;28;20780;-93
2022/12/31 08:11:37;;;;;;;5.40;1.20;;;;;;;;;;4994544;28;20026;-94
2022/12/31 08:14:08;;;;;;;3.63;1.40;;;;;;;;;;4988381;28;20093;-93
2022/12/31 08:16:37;;;;;;;2.58;0.50;;;;;;;;;;4995070;28;20021;-93
2022/12/31 08:19:18;;;;;;;1.80;1.40;;;;;;;;;;4973022;28;20121;-93
2022/12/31 08:22:10;;;;;;;3.13;1.85;;;;;;;;;;4984659;28;20456;-93
2022/12/31 08:24:36;;;;;;;3.10;1.55;;;;;;;;;;4959587;28;20041;-94
2022/12/31 08:27:30;;;;;;;1.38;1.27;;;;;;;;;;4987686;28;20046;-94
2022/12/31 08:30:10;;;;;;;2.25;1.35;;;;;;;;;;4987559;28;20029;-93
2022/12/31 08:32:48;;;;;;;2.92;1.40;;;;;;;;;;5001388;28;20553;-94
2022/12/31 08:35:33;;;;;;;2.58;1.27;;;;;;;;;;4992063;28;20034;-94
2022/12/31 08:38:17;;;;;;;1.95;1.35;;;;;;;;;;4988997;28;20036;-94
2022/12/31 08:40:46;;;;;;;1.67;1.58;;;;;;;;;;4992404;28;20424;-93
2022/12/31 08:43:34;;;;;;;3.45;1.30;;;;;;;;;;4994068;28;20578;-92
2022/12/31 08:46:01;;;;;;;2.72;1.20;;;;;;;;;;4994017;28;20410;-94
2022/12/31 08:48:32;;;;;;;7.45;1.02;;;;;;;;;;4996737;28;20021;-95
2022/12/31 08:50:58;;;;;;;1.05;0.70;;;;;;;;;;5005200;28;20036;-94
2022/12/31 08:53:34;;;;;;;0.57;0.50;;;;;;;;;;4983094;28;20026;-93
2022/12/31 08:56:21;;;;;;;0.82;0.55;;;;;;;;;;4994379;28;20235;-93
2022/12/31 08:58:50;;;;;;;1.13;1.02;;;;;;;;;;5004947;28;20040;-93
2022/12/31 09:01:26;;;;;;;0.80;0.80;;;;;;;;;;5006804;28;20053;-94
2022/12/31 09:03:51;;;;;;;;;;;;;;;;;;4983333;28;20040;-94
2022/12/31 09:06:36;;;;;;;0.90;0.50;;;;;;;;;;4984326;28;19914;-93
2022/12/31 09:09:18;;;;;;;1.13;0.88;;;;;;;;;;4990843;28;20087;-94
2022/12/31 09:12:03;;;;;;;3.45;1.42;;;;;;;;;;5002652;28;20030;-94
2022/12/31 09:14:38;;;;;;;1.17;1.08;;;;;;;;;;4997781;28;20072;-93
2022/12/31 09:17:07;;;;;;;0.60;0.55;;;;;;;;;;5001805;28;20064;-93
2022/12/31 09:19:38;;;;;;;3.13;1.70;;;;;;;;;;5001642;28;20030;-94
2022/12/31 09:22:04;;;;;;;4.80;1.45;;;;;;;;;;4994281;28;20125;-93
2022/12/31 09:24:38;;;;;;;2.22;1.15;;;;;;;;;;4973878;28;20121;-94
2022/12/31 09:27:13;;;;;;;4.15;1.30;;;;;;;;;;4991287;28;20054;-92
2022/12/31 09:30:00;;;;;;;1.40;1.10;;;;;;;;;;4991985;28;20040;-93
2022/12/31 09:32:45;;;;;;;1.50;0.82;;;;;;;;;;4988670;28;20053;-92
2022/12/31 09:35:26;;;;;;;1.25;1.15;;;;;;;;;;4990788;28;20052;-93
2022/12/31 09:37:58;;;;;;;1.60;1.27;;;;;;;;;;4997994;28;20473;-92
2022/12/31 09:40:42;;;;;;;1.67;0.93;;;;;;;;;;5004554;28;20113;-93
2022/12/31 09:43:14;;;;;;;2.67;1.25;;;;;;;;;;5002459;28;20026;-93
2022/12/31 09:45:59;;;;;;;6.75;1.48;;;;;;;;;;5000621;28;20033;-93
2022/12/31 09:48:37;;;;;;;3.63;1.27;;;;;;;;;;4993366;28;20033;-93
2022/12/31 09:51:17;;;;;;;2.05;1.08;;;;;;;;;;4994442;28;20048;-92
2022/12/31 09:54:02;;;;;;;3.78;1.33;;;;;;;;;;4985598;28;20026;-91
2022/12/31 09:56:51;;;;;;;3.85;1.55;;;;;;;;;;4998534;28;20442;-92
2022/12/31 09:59:23;;;;;;;2.22;1.10;;;;;;;;;;4956947;28;20157;-93
2022/12/31 10:01:53;;;;;;;3.50;1.08;;;;;;;;;;4990974;28;20100;-92
2022/12/31 10:04:19;;;;;;;0.65;0.43;;;;;;;;;;5001861;28;21216;-93
2022/12/31 10:07:04;;;;;;;0.77;0.70;;;;;;;;;;4990944;28;20568;-93
2022/12/31 10:09:48;;;;;;;3.08;0.95;;;;;;;;;;4991369;28;20041;-93
2022/12/31 10:12:17;;;;;;;3.13;0.70;;;;;;;;;;4982299;28;20034;-92
2022/12/31 10:14:55;;;;;;;4.10;0.60;;;;;;;;;;4997783;28;20058;-93
2022/12/31 10:17:51;;;;;;;1.50;0.68;;;;;;;;;;5002968;28;20779;-93
2022/12/31 10:20:30;;;;;;;1.88;0.45;;;;;;;;;;4986729;28;20088;-92
2022/12/31 10:23:18;;;;;;;8.48;0.52;;;;;;;;;;4989066;28;20129;-93
2022/12/31 10:25:45;;;;;;;9.88;1.00;;;;;;;;;;4988210;28;20738;-91
2022/12/31 10:28:22;;;;;;;3.05;0.80;;;;;;;;;;4989936;28;20505;-93
2022/12/31 10:30:58;;;;;;;1.48;0.85;;;;;;;;;;5001647;28;20038;-92
2022/12/31 10:33:27;;;;;;;3.13;0.82;;;;;;;;;;4998889;28;20489;-93
2022/12/31 10:35:59;;;;;;;2.47;0.40;;;;;;;;;;5003089;28;20731;-92
2022/12/31 10:38:43;;;;;;;6.57;1.00;;;;;;;;;;4984711;28;20397;-93
2022/12/31 10:41:19;;;;;;;1.17;0.82;;;;;;;;;;5002114;28;20057;-93
2022/12/31 10:43:57;;;;;;;6.35;1.13;;;;;;;;;;4995993;28;20044;-94
2022/12/31 10:46:23;;;;;;;7.25;0.90;;;;;;;;;;5000339;28;20034;-94
2022/12/31 10:48:49;;;;;;;1.30;0.77;;;;;;;;;;4992879;28;20386;-92
2022/12/31 10:51:34;;;;;;;4.65;1.70;;;;;;;;;;4999809;28;20129;-94
2022/12/31 10:54:15;;;;;;;10.63;1.77;;;;;;;;;;5002148;28;20359;-93
2022/12/31 10:56:47;;;;;;;4.78;1.30;;;;;;;;;;5002371;28;20558;-92
2022/12/31 10:59:32;;;;;;;5.95;1.35;;;;;;;;;;4986576;28;20029;-92
2022/12/31 11:02:18;;;;;;;5.28;1.35;;;;;;;;;;5002091;28;20405;-93
2022/12/31 11:04:59;;;;;;;5.57;1.27;;;;;;;;;;5003818;28;20083;-94
2022/12/31 11:07:53;;;;;;;6.97;1.20;;;;;;;;;;4995952;28;20033;-93
2022/12/31 11:10:45;;;;;;;6.82;1.85;;;;;;;;;;4968911;28;20069;-93
2022/12/31 11:13:30;;;;;;;10.15;2.30;;;;;;;;;;4994174;28;20056;-93
2022/12/31 11:16:02;;;;;;;10.65;1.45;;;;;;;;;;4986959;28;20100;-93
2022/12/31 11:18:34;;;;;;;7.13;1.17;;;;;;;;;;4983183;28;20470;-93
2022/12/31 11:21:06;;;;;;;7.35;0.75;;;;;;;;;;5002197;28;20552;-92
2022/12/31 11:23:45;;;;;;;6.25;1.42;;;;;;;;;;5004523;28;20192;-90
2022/12/31 11:26:30;;;;;;;11.25;2.25;;;;;;;;;;4990125;28;20037;-93
2022/12/31 11:29:15;;;;;;;9.73;1.92;;;;;;;;;;5005805;28;20053;-91
2022/12/31 11:31:48;;;;;;;10.48;1.27;;;;;;;;;;4999957;28;20041;-91
2022/12/31 11:34:32;;;;;;;6.25;1.60;;;;;;;;;;4982959;28;20037;-91
2022/12/31 11:37:05;;;;;;;5.65;1.35;;;;;;;;;;4991687;28;20026;-91
2022/12/31 11:39:50;;;;;;;7.07;2.42;;;;;;;;;;5000822;28;20055;-92
2022/12/31 11:42:35;;;;;;;6.65;1.52;;;;;;;;;;5005270;28;20108;-92
2022/12/31 11:45:24;;;;;;;4.90;1.48;;;;;;;;;;5003098;28;20092;-91
2022/12/31 11:47:59;;;;;;;7.40;1.58;;;;;;;;;;5004005;28;20081;-93
2022/12/31 11:50:28;;;;;;;16.25;2.00;;;;;;;;;;4987492;28;21096;-92
2022/12/31 11:53:13;;;;;;;3.30;1.00;;;;;;;;;;5002994;28;20061;-91
2022/12/31 11:55:39;;;;;;;10.48;1.20;;;;;;;;;;4987219;28;20030;-92
2022/12/31 11:58:15;;;;;;;8.85;1.45;;;;;;;;;;5004234;28;20568;-92
2022/12/31 12:00:50;;;;;;;9.73;1.63;;;;;;;;;;5002557;28;20681;-92
2022/12/31 12:03:16;;;;;;;6.15;1.20;;;;;;;;;;5009854;28;20026;-92
2022/12/31 12:05:42;;;;;;;3.35;1.50;;;;;;;;;;5006150;28;20034;-92
2022/12/31 12:08:08;;;;;;;9.95;1.48;;;;;;;;;;4979629;28;20168;-92
2022/12/31 12:10:46;;;;;;;4.40;1.25;;;;;;;;;;4977480;28;20053;-92
2022/12/31 12:13:20;;;;;;;4.80;1.92;;;;;;;;;;4992425;28;20147;-92
2022/12/31 12:15:48;;;;;;;3.08;0.98;;;;;;;;;;4983809;28;20026;-92
2022/12/31 12:18:35;;;;;;;6.22;1.33;;;;;;;;;;4989338;28;20030;-92
2022/12/31 12:21:06;;;;;;;6.90;1.50;;;;;;;;;;4969087;28;20046;-92
2022/12/31 12:23:32;;;;;;;3.60;1.05;;;;;;;;;;4990574;28;20101;-91
2022/12/31 12:25:58;;;;;;;3.00;1.20;;;;;;;;;;4978776;28;20053;-92
2022/12/31 12:28:26;;;;;;;6.03;1.23;;;;;;;;;;4973377;28;20049;-91
2022/12/31 12:31:03;;;;;;;6.85;1.48;;;;;;;;;;4995813;28;20405;-92
2022/12/31 12:33:30;;;;;;;2.33;1.48;;;;;;;;;;4985326;28;20030;-92
2022/12/31 12:36:07;;;;;;;8.63;1.75;;;;;;;;;;5003606;28;20248;-91
2022/12/31 12:38:33;;;;;;;5.82;1.27;;;;;;;;;;5001101;28;20049;-91
2022/12/31 12:41:00;;;;;;;19.00;2.05;;;;;;;;;;4984188;28;20401;-92
2022/12/31 12:43:28;;;;;;;8.13;1.77;;;;;;;;;;5002683;28;20413;-91
2022/12/31 12:45:57;;;;;;;14.60;2.55;;;;;;;;;;5003152;28;20061;-92
2022/12/31 12:48:29;;;;;;;12.15;1.73;;;;;;;;;;5003044;28;20481;-92
2022/12/31 12:50:56;;;;;;;8.43;2.35;;;;;;;;;;4999670;28;20510;-92
2022/12/31 12:53:37;;;;;;;14.27;2.63;;;;;;;;;;4969404;28;20442;-92
2022/12/31 12:56:03;;;;;;;6.97;2.05;;;;;;;;;;4990385;28;20115;-92
2022/12/31 12:58:29;;;;;;;14.90;1.90;;;;;;;;;;4995360;28;20038;-91
2022/12/31 13:01:01;;;;;;;6.68;1.42;;;;;;;;;;4999352;28;20033;-92
2022/12/31 13:03:41;;;;;;;7.63;1.92;;;;;;;;;;4994346;28;20560;-92
2022/12/31 13:06:25;;;;;;;11.00;2.42;;;;;;;;;;5003398;28;20533;-93
2022/12/31 13:09:12;;;;;;;4.65;1.48;;;;;;;;;;4996293;28;20121;-92
2022/12/31 13:11:42;;;;;;;4.28;1.48;;;;;;;;;;4989094;28;20359;-93
2022/12/31 13:14:38;;;;;;;12.40;1.98;;;;;;;;;;5002837;28;20117;-92
2022/12/31 13:17:17;;;;;;;3.47;1.23;;;;;;;;;;4968551;28;20062;-92
2022/12/31 13:19:49;;;;;;;7.70;1.30;;;;;;;;;;5003498;28;20404;-92
2022/12/31 13:22:22;;;;;;;6.13;1.05;;;;;;;;;;4988054;28;20116;-91
2022/12/31 13:24:55;;;;;;;16.27;1.80;;;;;;;;;;4989468;28;20034;-92
2022/12/31 13:27:42;;;;;;;6.07;1.17;;;;;;;;;;4986343;28;20045;-92
2022/12/31 13:30:35;;;;;;;4.60;1.42;;;;;;;;;;4995670;28;20042;-92
2022/12/31 13:33:04;;;;;;;6.22;1.83;;;;;;;;;;4983191;28;20576;-91
2022/12/31 13:35:33;;;;;;;5.88;1.55;;;;;;;;;;4993216;28;20069;-92
2022/12/31 13:38:11;;;;;;;2.88;1.00;;;;;;;;;;5000361;28;20042;-92
2022/12/31 13:40:45;;;;;;;9.40;1.08;;;;;;;;;;4984899;28;20235;-92
2022/12/31 13:43:25;;;;;;;12.70;2.08;;;;;;;;;;5000958;28;20513;-92
2022/12/31 13:46:00;;;;;;;15.38;2.13;;;;;;;;;;4996612;28;20511;-91
2022/12/31 13:48:32;;;;;;;8.30;1.77;;;;;;;;;;4999707;28;20018;-92
2022/12/31 13:51:05;;;;;;;14.57;1.98;;;;;;;;;;4998813;28;20088;-91
2022/12/31 13:53:38;;;;;;;6.95;2.47;;;;;;;;;;5008105;28;20030;-92
2022/12/31 13:56:10;;;;;;;9.77;1.98;;;;;;;;;;4988572;28;20080;-91
2022/12/31 13:58:42;;;;;;;9.40;1.45;;;;;;;;;;4990007;28;20026;-92
2022/12/31 14:01:20;;;;;;;22.33;2.60;;;;;;;;;;4998916;28;20472;-92
2022/12/31 14:03:52;;;;;;;3.05;1.30;;;;;;;;;;4989306;28;20041;-91
2022/12/31 14:06:21;;;;;;;18.50;2.47;;;;;;;;;;5005671;28;20027;-92
2022/12/31 14:08:47;;;;;;;11.95;3.08;;;;;;;;;;5003041;28;20037;-92
2022/12/31 14:11:20;;;;;;;10.25;4.13;;;;;;;;;;4988665;28;20030;-92
2022/12/31 14:14:06;;;;;;;9.60;2.35;;;;;;;;;;4987214;28;20076;-92
2022/12/31 14:16:32;;;;;;;7.72;2.38;;;;;;;;;;4984023;28;20038;-92
2022/12/31 14:19:10;;;;;;;7.53;2.72;;;;;;;;;;4986898;28;20442;-93
2022/12/31 14:21:52;;;;;;;7.32;3.25;;;;;;;;;;4981554;28;20425;-92
2022/12/31 14:24:37;;;;;;;3.97;1.85;;;;;;;;;;4997898;28;20026;-93
2022/12/31 14:27:07;;;;;;;3.15;1.70;;;;;;;;;;4982953;28;20040;-93
2022/12/31 14:29:43;;;;;;;8.05;2.25;;;;;;;;;;4985458;28;20120;-93
2022/12/31 14:32:09;;;;;;;4.07;1.33;;;;;;;;;;4996664;28;20045;-92
2022/12/31 14:34:48;;;;;;;6.28;1.98;;;;;;;;;;4999252;28;20537;-92
2022/12/31 14:37:14;;;;;;;3.55;0.93;;;;;;;;;;4996165;28;20273;-93
2022/12/31 14:39:50;;;;;;;1.15;0.68;;;;;;;;;;4998199;28;20034;-93
2022/12/31 14:42:35;;;;;;;6.63;1.70;;;;;;;;;;4984713;28;20034;-93
2022/12/31 14:45:01;;;;;;;8.07;1.90;;;;;;;;;;4994210;28;20401;-93
2022/12/31 14:47:36;;;;;;;2.75;1.27;;;;;;;;;;4998233;28;20029;-92
2022/12/31 14:50:05;;;;;;;7.50;1.70;;;;;;;;;;4994720;28;20038;-92
2022/12/31 14:52:33;;;;;;;2.67;1.40;;;;;;;;;;4994957;28;20026;-93
2022/12/31 14:55:01;;;;;;;3.83;0.80;;;;;;;;;;5000885;28;20033;-92
2022/12/31 14:57:38;;;;;;;3.00;1.15;;;;;;;;;;5000753;28;20116;-92
2022/12/31 15:00:26;;;;;;;0.82;0.52;;;;;;;;;;5002816;28;20405;-93
2022/12/31 15:03:00;;;;;;;7.38;1.30;;;;;;;;;;4989264;28;20037;-92
2022/12/31 15:05:28;;;;;;;4.47;1.70;;;;;;;;;;5000297;28;20025;-92
2022/12/31 15:08:03;;;;;;;1.45;1.00;;;;;;;;;;4992774;28;20060;-92
2022/12/31 15:10:47;;;;;;;2.77;0.73;;;;;;;;;;5002491;28;20042;-92
2022/12/31 15:13:30;;;;;;;2.67;1.60;;;;;;;;;;5003348;28;20500;-93
2022/12/31 15:16:05;;;;;;;2.95;1.50;;;;;;;;;;4989243;28;20033;-93
2022/12/31 15:19:05;;;;;;;5.63;1.20;;;;;;;;;;4997007;28;20034;-92
2022/12/31 15:21:41;;;;;;;4.57;1.83;;;;;;;;;;5002150;28;20042;-91
2022/12/31 15:24:18;;;;;;;5.05;1.70;;;;;;;;;;5002553;28;20140;-92
2022/12/31 15:27:01;;;;;;;5.07;2.10;;;;;;;;;;4998710;28;20041;-91
2022/12/31 15:29:41;;;;;;;7.57;2.53;;;;;;;;;;4996866;28;20129;-93
2022/12/31 15:32:15;;;;;;;3.75;2.35;;;;;;;;;;4990706;28;20030;-93
2022/12/31 15:34:41;;;;;;;6.72;2.40;;;;;;;;;;4991139;28;20092;-93
2022/12/31 15:37:26;;;;;;;5.47;2.92;;;;;;;;;;4987335;28;20034;-95
2022/12/31 15:40:04;;;;;;;4.75;2.05;;;;;;;;;;5005209;28;20037;-92
2022/12/31 15:42:34;;;;;;;9.00;1.35;;;;;;;;;;4984900;28;20037;-92
2022/12/31 15:45:02;;;;;;;0.88;0.55;;;;;;;;;;4996991;28;20021;-93